Time;durP1;ratioP1;P1;durP2;ratioP2;P2;SDS_P1;SDS_P2;PMS_P1;PMS_P2;Temp;Humidity;BMP_temperature;BMP_pressure;BME280_temperature;BME280_humidity;BME280_pressure;Samples;Min_cycle;Max_cycle;Signal;HPM_P1;HPM_P2
2023/02/14 00:02:10;;;;;;;229.95;211.15;;;;;;;4.44;75.40;103849.81;4982151;28;20038;-72
2023/02/14 00:04:44;;;;;;;231.23;212.05;;;;;;;4.38;75.86;103850.41;4968072;28;20131;-71
2023/02/14 00:07:11;;;;;;;232.48;213.52;;;;;;;4.44;76.06;103863.06;4984645;28;20577;-72
2023/02/14 00:09:37;;;;;;;226.20;207.50;;;;;;;4.55;76.12;103856.72;4959685;28;20499;-72
2023/02/14 00:12:06;;;;;;;234.02;214.93;;;;;;;4.42;76.58;103873.00;4981357;28;20058;-70
2023/02/14 00:17:18;;;;;;;233.75;214.57;;;;;;;4.23;77.36;103862.53;4981468;28;20123;-71
2023/02/14 00:19:45;;;;;;;234.10;215.07;;;;;;;4.23;77.46;103870.50;4981543;28;20537;-71
2023/02/14 00:22:14;;;;;;;231.48;212.73;;;;;;;4.24;77.28;103877.47;4995695;28;20065;-70
2023/02/14 00:24:41;;;;;;;222.23;202.68;;;;;;;4.17;77.86;103871.09;4997178;28;20071;-71
2023/02/14 00:27:06;;;;;;;219.45;199.73;;;;;;;4.16;77.73;103869.44;4981665;28;20080;-72
2023/02/14 00:29:33;;;;;;;230.82;211.75;;;;;;;4.16;78.40;103878.22;4997445;28;20465;-72
2023/02/14 00:32:01;;;;;;;219.65;200.05;;;;;;;4.16;78.77;103875.56;4983878;28;20037;-72
2023/02/14 00:34:27;;;;;;;231.95;212.85;;;;;;;4.18;78.47;103880.72;4984062;28;20065;-72
2023/02/14 00:36:53;;;;;;;226.00;205.90;;;;;;;4.33;76.87;103879.22;4994852;28;20065;-72
2023/02/14 00:39:19;;;;;;;234.30;215.05;;;;;;;4.34;76.45;103875.59;4997144;28;20791;-72
2023/02/14 00:41:46;;;;;;;219.98;200.55;;;;;;;4.32;76.20;103877.53;4996903;28;20265;-72
2023/02/14 00:44:12;;;;;;;219.02;200.27;;;;;;;4.24;76.49;103874.81;4980979;28;20036;-71
2023/02/14 00:46:38;;;;;;;223.57;203.52;;;;;;;4.22;76.87;103868.84;4965068;28;20041;-71
2023/02/14 00:49:04;;;;;;;230.77;211.48;;;;;;;4.19;78.13;103871.78;4994649;28;20080;-71
2023/02/14 00:51:30;;;;;;;218.43;199.15;;;;;;;4.20;77.62;103868.13;5012619;28;20484;-70
2023/02/14 00:53:56;;;;;;;224.20;204.45;;;;;;;4.20;77.56;103869.00;4991948;28;20553;-72
2023/02/14 00:56:22;;;;;;;216.23;197.38;;;;;;;4.19;78.31;103869.97;4993790;28;20042;-72
2023/02/14 00:58:48;;;;;;;220.10;201.18;;;;;;;4.20;78.52;103868.13;4979494;28;20038;-71
2023/02/14 01:01:16;;;;;;;232.65;213.82;;;;;;;4.21;79.09;103868.00;4962894;28;20038;-72
2023/02/14 01:03:42;;;;;;;223.18;203.50;;;;;;;4.19;78.71;103867.31;4996616;28;20034;-72
2023/02/14 01:06:08;;;;;;;216.60;197.70;;;;;;;4.19;78.02;103861.16;4995604;28;20111;-71
2023/02/14 01:08:36;;;;;;;231.63;212.77;;;;;;;4.22;78.00;103867.03;4978420;28;20141;-71
2023/02/14 01:11:20;;;;;;;230.32;211.35;;;;;;;4.16;77.85;103858.84;4976734;28;20046;-71
2023/02/14 01:13:48;;;;;;;225.73;205.70;;;;;;;4.21;77.21;103853.91;4994570;28;20033;-72
2023/02/14 01:16:19;;;;;;;218.57;199.50;;;;;;;4.13;77.25;103862.59;4979266;28;20062;-72
2023/02/14 01:18:49;;;;;;;228.55;209.88;;;;;;;4.06;78.05;103862.41;5009833;28;20039;-72
2023/02/14 01:21:25;;;;;;;231.05;212.27;;;;;;;4.04;77.63;103851.09;4994348;28;20776;-71
2023/02/14 01:23:54;;;;;;;218.30;199.48;;;;;;;4.02;77.92;103855.72;4995253;28;20490;-71
2023/02/14 01:26:22;;;;;;;222.27;202.60;;;;;;;4.01;77.71;103853.22;4999521;28;20048;-71
2023/02/14 01:28:48;;;;;;;218.88;199.52;;;;;;;3.98;78.24;103846.38;4981773;28;20030;-72
2023/02/14 01:31:20;;;;;;;231.40;212.68;;;;;;;4.10;77.21;103847.84;4997664;28;20065;-71
2023/02/14 01:33:47;;;;;;;226.57;206.45;;;;;;;4.07;76.95;103842.00;4983073;28;20504;-71
2023/02/14 01:36:22;;;;;;;229.55;211.02;;;;;;;4.28;75.87;103854.97;4999851;28;20049;-73
2023/02/14 01:38:52;;;;;;;236.00;216.90;;;;;;;4.18;76.14;103846.25;4995518;28;20038;-72
2023/02/14 01:41:18;;;;;;;220.50;201.23;;;;;;;4.09;75.82;103843.50;5014754;28;20062;-72
2023/02/14 01:43:50;;;;;;;224.05;204.55;;;;;;;4.09;76.14;103840.88;4996143;28;20114;-71
2023/02/14 01:46:15;;;;;;;222.10;202.00;;;;;;;4.03;76.26;103846.75;4997304;28;20025;-70
2023/02/14 01:48:41;;;;;;;233.65;214.10;;;;;;;3.99;77.91;103837.44;4993348;28;20034;-72
2023/02/14 01:51:07;;;;;;;232.43;213.32;;;;;;;4.00;77.83;103835.63;4996304;28;20505;-72
2023/02/14 01:53:32;;;;;;;222.07;202.60;;;;;;;3.98;77.93;103838.41;4978739;28;20031;-72
2023/02/14 01:56:04;;;;;;;230.10;211.27;;;;;;;4.03;77.15;103840.63;4993930;28;20677;-72
2023/02/14 01:58:34;;;;;;;220.87;201.70;;;;;;;4.04;77.53;103835.16;4991796;28;20396;-70
2023/02/14 02:01:01;;;;;;;227.85;207.43;;;;;;;4.01;76.63;103838.13;4995591;28;20740;-72
2023/02/14 02:03:40;;;;;;;224.88;204.98;;;;;;;3.99;77.77;103839.25;4999791;28;20492;-71
2023/02/14 02:06:14;;;;;;;232.60;213.23;;;;;;;4.01;77.33;103827.53;4977982;28;20199;-71
2023/02/14 02:08:50;;;;;;;230.57;211.68;;;;;;;3.94;77.43;103830.94;4978292;28;20576;-71
2023/02/14 02:11:15;;;;;;;222.82;202.95;;;;;;;4.05;76.86;103828.03;4992736;28;20496;-71
2023/02/14 02:13:41;;;;;;;220.02;200.63;;;;;;;3.93;77.93;103821.28;4996901;28;20045;-71
2023/02/14 02:16:43;;;;;;;231.60;212.85;;;;;;;3.86;77.19;103821.03;5001841;28;20128;-71
2023/02/14 02:19:32;;;;;;;229.68;209.32;;;;;;;3.86;77.86;103818.41;5001362;28;20038;-70
2023/02/14 02:22:28;;;;;;;237.43;217.90;;;;;;;3.88;77.18;103820.91;4994827;28;20080;-70
2023/02/14 02:25:31;;;;;;;226.35;206.57;;;;;;;3.82;77.78;103817.03;4997835;28;20158;-71
2023/02/14 02:28:25;;;;;;;225.18;205.45;;;;;;;3.79;78.26;103812.03;5013686;28;20539;-71
2023/02/14 02:31:00;;;;;;;236.90;217.48;;;;;;;3.82;77.63;103814.41;5015422;28;20186;-71
2023/02/14 02:33:50;;;;;;;236.20;216.90;;;;;;;3.85;77.43;103822.03;4982790;28;20038;-71
2023/02/14 02:36:58;;;;;;;235.20;215.88;;;;;;;3.82;77.36;103811.75;4984944;28;20081;-71
2023/02/14 02:39:44;;;;;;;224.68;204.63;;;;;;;3.76;78.18;103815.00;4968378;28;20045;-72
2023/02/14 02:42:20;;;;;;;225.45;205.55;;;;;;;3.75;77.93;103821.28;5009810;28;20037;-71
2023/02/14 02:45:05;;;;;;;226.13;206.18;;;;;;;3.77;78.33;103814.84;4985037;28;20042;-70
2023/02/14 02:47:56;;;;;;;239.05;219.63;;;;;;;3.74;78.18;103806.34;4984646;28;20026;-72
2023/02/14 02:53:32;;;;;;;238.60;219.02;;;;;;;3.71;78.09;103811.94;4997339;28;20100;-70
2023/02/14 02:59:03;;;;;;;225.20;205.43;;;;;;;3.61;79.15;103809.38;4998584;28;20108;-70
2023/02/14 03:01:34;;;;;;;226.05;206.00;;;;;;;3.56;79.66;103807.16;4998902;28;20046;-71
2023/02/14 03:06:50;;;;;;;227.48;207.20;;;;;;;3.57;79.49;103813.28;5014073;28;20042;-72
2023/02/14 03:09:19;;;;;;;233.60;214.15;;;;;;;3.56;79.29;103815.09;4982736;28;20041;-71
2023/02/14 03:12:00;;;;;;;223.55;203.82;;;;;;;3.51;79.62;103814.69;4964088;28;20038;-71
2023/02/14 03:14:40;;;;;;;235.25;215.82;;;;;;;3.41;80.01;103813.94;4993812;28;20081;-70
2023/02/14 03:17:12;;;;;;;227.27;207.10;;;;;;;3.35;80.58;103813.69;4985197;28;20037;-71
2023/02/14 03:20:12;;;;;;;224.35;204.05;;;;;;;3.38;80.82;103808.06;5012211;28;20376;-72
2023/02/14 03:22:47;;;;;;;225.30;205.02;;;;;;;3.40;80.14;103809.63;4995773;28;20499;-73
2023/02/14 03:25:20;;;;;;;237.07;217.18;;;;;;;3.38;80.12;103800.97;5000290;28;20142;-70
2023/02/14 03:27:57;;;;;;;241.20;220.80;;;;;;;3.47;80.22;103796.63;4997297;28;20038;-71
2023/02/14 03:30:44;;;;;;;230.57;209.45;;;;;;;3.45;80.27;103801.19;4986581;28;20049;-71
2023/02/14 03:33:30;;;;;;;225.52;205.35;;;;;;;3.41;80.06;103800.69;4996638;28;20025;-71
2023/02/14 03:36:00;;;;;;;243.88;223.60;;;;;;;3.37;80.70;103796.66;5002934;28;20042;-71
2023/02/14 03:38:34;;;;;;;226.40;205.95;;;;;;;3.39;80.39;103802.66;5002287;28;20243;-71
2023/02/14 03:41:04;;;;;;;242.05;221.70;;;;;;;3.35;80.26;103798.63;4998077;28;20073;-71
2023/02/14 03:43:40;;;;;;;221.40;201.65;;;;;;;3.27;80.72;103806.47;4997013;28;20070;-71
2023/02/14 03:46:16;;;;;;;234.70;215.10;;;;;;;3.23;81.24;103799.78;5014699;28;20038;-72
2023/02/14 03:48:44;;;;;;;226.98;206.85;;;;;;;3.21;81.33;103788.50;4999356;28;20038;-70
2023/02/14 03:51:14;;;;;;;230.02;210.88;;;;;;;3.13;81.09;103783.13;4999897;28;20041;-71
2023/02/14 03:53:45;;;;;;;224.30;204.07;;;;;;;3.10;81.13;103784.22;5000226;28;20026;-70
2023/02/14 03:56:35;;;;;;;241.40;220.93;;;;;;;3.08;81.31;103782.69;5000925;28;20116;-72
2023/02/14 03:59:22;;;;;;;226.32;205.63;;;;;;;3.03;81.77;103777.84;5002017;28;20487;-71
2023/02/14 04:01:58;;;;;;;238.63;219.02;;;;;;;3.04;82.02;103779.50;4982772;28;20065;-70
2023/02/14 04:04:29;;;;;;;220.95;201.05;;;;;;;3.05;81.98;103775.03;4999339;28;20097;-71
2023/02/14 04:06:55;;;;;;;224.25;204.32;;;;;;;2.98;82.37;103773.00;4999122;28;20057;-71
2023/02/14 04:09:24;;;;;;;235.75;215.55;;;;;;;2.97;82.86;103775.75;4994364;28;21069;-71
2023/02/14 04:11:50;;;;;;;225.63;205.35;;;;;;;3.00;83.12;103768.38;5009492;28;20038;-70
2023/02/14 04:14:16;;;;;;;236.10;216.32;;;;;;;3.04;83.07;103773.38;4995794;28;20407;-70
2023/02/14 04:19:27;;;;;;;222.93;202.52;;;;;;;3.04;83.70;103763.63;4997865;28;20025;-72
2023/02/14 04:21:52;;;;;;;235.85;216.02;;;;;;;3.05;82.81;103767.94;5000837;28;20041;-71
2023/02/14 04:24:19;;;;;;;226.65;206.25;;;;;;;3.04;82.96;103762.78;4996742;28;20538;-72
2023/02/14 04:27:08;;;;;;;226.10;205.85;;;;;;;3.04;82.49;103768.06;4999183;28;20034;-71
2023/02/14 04:29:30;;;;;;;226.48;205.95;;;;;;;3.01;82.76;103769.22;4998277;28;20046;-71
2023/02/14 04:31:55;;;;;;;239.40;219.13;;;;;;;3.00;82.59;103771.03;5000901;28;20115;-71
2023/02/14 04:34:21;;;;;;;227.35;206.80;;;;;;;3.03;82.91;103764.59;4998559;28;20038;-70
2023/02/14 04:36:47;;;;;;;231.95;210.90;;;;;;;3.03;83.35;103759.31;4998907;28;20049;-69
2023/02/14 04:39:12;;;;;;;225.93;205.23;;;;;;;3.08;83.06;103765.00;4994046;28;20030;-72
2023/02/14 04:41:38;;;;;;;238.60;218.68;;;;;;;3.10;82.49;103762.19;4999094;28;20042;-70
2023/02/14 04:44:04;;;;;;;224.40;204.23;;;;;;;3.07;82.37;103759.84;4997623;28;20046;-72
2023/02/14 04:46:29;;;;;;;223.13;203.20;;;;;;;3.06;82.76;103760.84;4997289;28;20038;-71
2023/02/14 04:48:55;;;;;;;225.15;205.00;;;;;;;3.01;82.79;103756.81;4966273;28;20080;-72
2023/02/14 04:51:20;;;;;;;239.15;219.15;;;;;;;3.01;83.08;103759.44;4999269;28;20530;-72
2023/02/14 04:53:46;;;;;;;221.38;201.52;;;;;;;3.04;83.83;103762.78;4998768;28;20025;-73
2023/02/14 04:56:12;;;;;;;226.27;206.10;;;;;;;3.09;83.29;103760.53;4985898;28;20061;-72
2023/02/14 04:58:37;;;;;;;224.88;204.40;;;;;;;3.09;83.08;103755.25;4998451;28;20038;-72
2023/02/14 05:01:03;;;;;;;237.70;217.88;;;;;;;3.14;83.30;103758.28;4998732;28;20026;-72
2023/02/14 05:03:29;;;;;;;237.70;217.55;;;;;;;3.23;82.52;103754.75;4982926;28;20120;-71
2023/02/14 05:05:54;;;;;;;241.18;221.00;;;;;;;3.21;82.94;103762.84;4999162;28;20645;-72
2023/02/14 05:08:20;;;;;;;242.00;221.70;;;;;;;3.19;82.85;103766.63;4997887;28;20037;-73
2023/02/14 05:10:46;;;;;;;225.32;204.93;;;;;;;3.19;82.81;103753.41;4992779;28;20399;-72
2023/02/14 05:13:13;;;;;;;232.20;212.85;;;;;;;3.18;82.31;103757.00;4996124;28;20034;-72
2023/02/14 05:15:38;;;;;;;227.73;206.98;;;;;;;3.12;82.68;103750.50;4999347;28;20030;-72
2023/02/14 05:18:04;;;;;;;223.90;203.38;;;;;;;3.16;83.14;103748.38;4999264;28;20515;-70
2023/02/14 05:20:30;;;;;;;225.68;204.75;;;;;;;3.23;82.25;103752.09;5014768;28;20101;-71
2023/02/14 05:22:58;;;;;;;225.18;205.07;;;;;;;3.28;82.07;103753.34;4998908;28;20045;-72
2023/02/14 05:25:24;;;;;;;235.65;215.73;;;;;;;3.31;81.64;103751.38;4982973;28;20136;-71
2023/02/14 05:27:49;;;;;;;226.52;206.30;;;;;;;3.31;81.76;103752.19;4997471;28;20236;-72
2023/02/14 05:30:21;;;;;;;228.85;210.00;;;;;;;3.32;82.14;103750.38;4996321;28;20030;-71
2023/02/14 05:32:46;;;;;;;222.60;202.73;;;;;;;3.31;81.91;103743.41;4992498;28;20034;-72
2023/02/14 05:35:12;;;;;;;241.95;221.60;;;;;;;3.32;81.17;103745.94;5000026;28;20036;-71
2023/02/14 05:37:38;;;;;;;230.85;211.75;;;;;;;3.33;81.63;103752.91;5000361;28;20077;-69
2023/02/14 05:40:06;;;;;;;223.60;203.60;;;;;;;3.36;81.39;103749.94;4994337;28;20142;-72
2023/02/14 05:42:31;;;;;;;238.43;218.43;;;;;;;3.37;81.16;103754.25;4996547;28;20477;-72
2023/02/14 05:44:57;;;;;;;226.23;205.85;;;;;;;3.41;80.54;103750.34;4992468;28;20121;-73
2023/02/14 05:47:25;;;;;;;221.90;201.95;;;;;;;3.43;80.98;103745.72;5000363;28;20048;-70
2023/02/14 05:49:50;;;;;;;228.30;207.73;;;;;;;3.41;80.57;103745.03;4999388;28;20030;-72
2023/02/14 05:52:16;;;;;;;236.82;217.18;;;;;;;3.42;80.64;103736.09;4986842;28;20040;-70
2023/02/14 05:54:42;;;;;;;236.10;216.13;;;;;;;3.39;80.92;103740.88;4986174;28;20499;-72
2023/02/14 05:57:07;;;;;;;225.40;205.18;;;;;;;3.34;81.20;103743.13;4999797;28;20049;-72
2023/02/14 05:59:33;;;;;;;227.63;207.13;;;;;;;3.27;80.88;103734.94;4988220;28;20060;-72
2023/02/14 06:01:59;;;;;;;237.35;217.52;;;;;;;3.27;81.73;103748.19;4986707;28;20050;-73
2023/02/14 06:04:24;;;;;;;236.05;216.40;;;;;;;3.25;82.01;103739.53;4987446;28;20034;-72
2023/02/14 06:06:50;;;;;;;234.77;215.52;;;;;;;3.25;82.39;103737.75;5003164;28;20068;-70
2023/02/14 06:09:15;;;;;;;234.23;214.82;;;;;;;3.35;81.63;103739.50;4984974;28;20596;-72
2023/02/14 06:11:42;;;;;;;221.65;201.70;;;;;;;3.33;81.79;103739.66;5010131;28;20041;-72
2023/02/14 06:14:08;;;;;;;229.80;211.13;;;;;;;3.33;81.57;103733.53;4985558;28;20037;-71
2023/02/14 06:16:34;;;;;;;221.30;201.48;;;;;;;3.32;81.81;103737.13;5001353;28;20030;-72
2023/02/14 06:19:00;;;;;;;237.85;218.18;;;;;;;3.36;81.30;103746.47;4997440;28;20577;-72
2023/02/14 06:21:25;;;;;;;241.43;221.07;;;;;;;3.37;81.06;103743.66;5005548;28;20149;-71
2023/02/14 06:23:51;;;;;;;237.75;217.88;;;;;;;3.37;81.51;103733.06;4995125;28;20042;-70
2023/02/14 06:26:16;;;;;;;223.27;203.60;;;;;;;3.38;81.48;103747.13;5000324;28;20277;-71
2023/02/14 06:28:42;;;;;;;224.80;204.52;;;;;;;3.38;81.85;103740.03;5001720;28;20083;-73
2023/02/14 06:31:13;;;;;;;233.27;213.98;;;;;;;3.41;81.34;103747.69;4980918;28;20129;-73
2023/02/14 06:33:38;;;;;;;222.00;202.23;;;;;;;3.53;80.56;103750.97;4985945;28;20042;-72
2023/02/14 06:36:04;;;;;;;238.48;218.68;;;;;;;3.46;80.44;103737.50;4999607;28;20113;-72
2023/02/14 06:38:32;;;;;;;227.50;207.27;;;;;;;3.49;80.23;103752.25;4990757;28;20087;-71
2023/02/14 06:41:03;;;;;;;239.90;220.10;;;;;;;3.52;80.22;103755.44;5001236;28;20033;-71
2023/02/14 06:43:29;;;;;;;230.43;209.63;;;;;;;3.49;80.40;103745.13;4997970;28;20152;-71
2023/02/14 06:45:54;;;;;;;241.45;221.10;;;;;;;3.48;80.77;103753.22;5000721;28;20042;-71
2023/02/14 06:48:20;;;;;;;241.55;221.35;;;;;;;3.45;80.49;103762.28;4999753;28;20128;-71
2023/02/14 06:50:46;;;;;;;239.65;219.85;;;;;;;3.48;80.71;103755.88;4999016;28;20095;-69
2023/02/14 06:53:12;;;;;;;227.93;207.32;;;;;;;3.51;80.45;103760.88;5026535;28;20149;-70
2023/02/14 06:55:37;;;;;;;222.88;203.20;;;;;;;3.49;80.10;103753.06;4980302;28;20121;-70
2023/02/14 06:58:03;;;;;;;240.10;219.55;;;;;;;3.51;80.35;103760.88;5002508;28;20041;-70
2023/02/14 07:00:29;;;;;;;239.15;219.27;;;;;;;3.52;80.50;103758.09;5001132;28;20026;-69
2023/02/14 07:02:55;;;;;;;225.38;205.35;;;;;;;3.54;80.40;103763.25;4993295;28;20548;-70
2023/02/14 07:05:21;;;;;;;240.30;220.38;;;;;;;3.65;80.33;103756.88;5002537;28;20036;-70
2023/02/14 07:07:47;;;;;;;236.98;217.40;;;;;;;3.64;80.44;103753.41;5001456;28;20041;-70
2023/02/14 07:10:13;;;;;;;229.95;209.60;;;;;;;3.64;80.09;103758.69;4999642;28;20045;-72
2023/02/14 07:12:39;;;;;;;241.02;221.30;;;;;;;3.68;80.13;103751.28;5007294;28;20146;-69
2023/02/14 07:15:07;;;;;;;237.65;217.52;;;;;;;3.66;80.23;103745.28;5004687;28;20022;-70
2023/02/14 07:17:33;;;;;;;233.00;213.70;;;;;;;3.69;80.76;103742.34;5001171;28;20121;-70
2023/02/14 07:19:59;;;;;;;233.68;214.25;;;;;;;3.73;80.67;103746.38;5002398;28;20174;-71
2023/02/14 07:22:24;;;;;;;227.98;209.35;;;;;;;3.75;80.25;103747.88;4999505;28;20065;-71
2023/02/14 07:24:50;;;;;;;218.18;199.38;;;;;;;3.81;79.94;103747.28;5011341;28;20092;-71
2023/02/14 07:27:15;;;;;;;229.27;210.35;;;;;;;3.84;79.68;103743.50;5002028;28;20890;-70
2023/02/14 07:29:41;;;;;;;218.23;198.93;;;;;;;3.90;80.06;103742.06;5002966;28;20067;-69
2023/02/14 07:32:07;;;;;;;233.43;214.60;;;;;;;3.90;79.75;103740.22;4984819;28;20099;-71
2023/02/14 07:34:33;;;;;;;217.85;198.90;;;;;;;3.95;79.47;103742.44;4971548;28;20044;-71
2023/02/14 07:37:00;;;;;;;222.25;202.70;;;;;;;4.01;79.02;103742.66;4983554;28;20541;-72
2023/02/14 07:39:25;;;;;;;229.43;210.77;;;;;;;4.13;78.54;103737.09;4983914;28;20089;-70
2023/02/14 07:41:52;;;;;;;226.98;208.82;;;;;;;4.10;78.47;103744.38;4997997;28;20038;-70
2023/02/14 07:44:18;;;;;;;219.10;199.77;;;;;;;4.15;78.57;103749.25;4998121;28;20535;-70
2023/02/14 07:46:44;;;;;;;218.50;199.52;;;;;;;4.08;78.66;103743.72;4998786;28;20069;-73
2023/02/14 07:49:09;;;;;;;223.18;204.98;;;;;;;4.10;78.84;103747.03;4998569;28;20116;-70
2023/02/14 07:51:35;;;;;;;225.27;206.95;;;;;;;4.14;78.59;103744.94;5003028;28;20119;-73
2023/02/14 07:54:01;;;;;;;220.77;201.38;;;;;;;4.19;79.17;103739.16;4986771;28;20030;-73
2023/02/14 07:56:26;;;;;;;225.68;207.68;;;;;;;4.24;78.51;103736.88;4984355;28;20049;-72
2023/02/14 07:58:51;;;;;;;223.45;205.50;;;;;;;4.29;78.31;103735.44;4992846;28;20656;-70
2023/02/14 08:01:17;;;;;;;217.68;198.90;;;;;;;4.42;77.52;103735.03;5000237;28;20045;-72
2023/02/14 08:03:45;;;;;;;212.90;194.65;;;;;;;4.46;77.98;103731.06;4995562;28;20443;-71
2023/02/14 08:06:11;;;;;;;214.30;195.98;;;;;;;4.36;77.79;103735.63;4996019;28;20038;-71
2023/02/14 08:08:36;;;;;;;219.63;200.48;;;;;;;4.39;77.57;103732.66;5017588;28;20515;-70
2023/02/14 08:11:02;;;;;;;222.05;204.10;;;;;;;4.47;77.73;103743.34;4996601;28;20037;-71
2023/02/14 08:13:28;;;;;;;224.43;206.25;;;;;;;4.57;77.32;103740.59;5000029;28;20030;-71
2023/02/14 08:16:11;;;;;;;223.68;205.98;;;;;;;4.66;77.48;103737.81;4998423;28;20034;-72
2023/02/14 08:18:39;;;;;;;218.80;199.88;;;;;;;4.75;76.81;103735.22;4978385;28;20093;-71
2023/02/14 08:21:07;;;;;;;223.23;205.70;;;;;;;4.83;76.05;103735.25;4998359;28;20030;-71
2023/02/14 08:23:33;;;;;;;228.55;210.70;;;;;;;4.86;75.94;103734.94;4996653;28;20072;-71
2023/02/14 08:26:01;;;;;;;231.05;212.88;;;;;;;4.93;75.79;103735.97;4981383;28;20045;-70
2023/02/14 08:28:28;;;;;;;217.23;198.35;;;;;;;4.85;75.65;103735.94;5016893;28;20515;-71
2023/02/14 08:30:54;;;;;;;228.32;210.40;;;;;;;4.90;76.28;103733.63;4984438;28;20044;-74
2023/02/14 08:33:20;;;;;;;223.57;206.13;;;;;;;5.00;75.37;103734.34;4999669;28;20131;-72
2023/02/14 08:35:46;;;;;;;224.05;206.50;;;;;;;5.15;75.42;103731.94;4999007;28;20022;-70
2023/02/14 08:38:13;;;;;;;212.60;194.32;;;;;;;5.23;75.10;103728.47;4997711;28;20030;-72
2023/02/14 08:40:38;;;;;;;211.65;193.30;;;;;;;5.20;74.85;103724.28;4985939;28;20044;-71
2023/02/14 08:43:05;;;;;;;224.23;206.55;;;;;;;5.25;74.13;103723.81;4992566;28;20049;-69
2023/02/14 08:45:31;;;;;;;207.07;189.35;;;;;;;5.32;74.42;103741.59;4999567;28;20483;-70
2023/02/14 08:48:11;;;;;;;216.63;199.60;;;;;;;5.39;74.67;103729.34;4997552;28;20034;-70
2023/02/14 08:50:38;;;;;;;206.48;189.13;;;;;;;5.40;74.07;103719.53;4997190;28;20041;-69
2023/02/14 08:53:10;;;;;;;213.57;197.07;;;;;;;5.46;74.16;103725.03;4997664;28;20042;-72
2023/02/14 08:55:36;;;;;;;214.05;197.20;;;;;;;5.59;73.30;103735.19;4994937;28;20542;-70
2023/02/14 08:58:02;;;;;;;213.32;196.82;;;;;;;5.55;73.35;103728.53;4979367;28;20396;-71
2023/02/14 09:00:29;;;;;;;218.68;201.73;;;;;;;5.60;73.60;103733.38;5009652;28;20040;-72
2023/02/14 09:02:54;;;;;;;217.90;200.70;;;;;;;5.75;73.61;103724.56;4997743;28;20744;-69
2023/02/14 09:05:22;;;;;;;207.10;189.95;;;;;;;5.77;73.51;103727.09;4998684;28;20034;-70
2023/02/14 09:07:48;;;;;;;213.98;197.25;;;;;;;5.86;72.97;103722.59;4999136;28;20294;-70
2023/02/14 09:10:15;;;;;;;215.63;198.65;;;;;;;5.96;73.48;103731.28;4983865;28;20064;-68
2023/02/14 09:12:44;;;;;;;206.40;189.38;;;;;;;6.01;72.55;103736.94;4996971;28;20526;-71
2023/02/14 09:15:11;;;;;;;215.52;198.88;;;;;;;5.98;72.41;103718.66;4996321;28;20030;-70
2023/02/14 09:17:37;;;;;;;214.23;197.95;;;;;;;5.97;71.88;103719.66;4997920;28;20041;-70
2023/02/14 09:20:05;;;;;;;220.35;203.52;;;;;;;6.12;72.05;103723.31;4981527;28;20043;-73
2023/02/14 09:22:32;;;;;;;213.38;197.02;;;;;;;6.14;71.88;103717.81;5001144;28;20036;-69
2023/02/14 09:24:59;;;;;;;212.20;196.25;;;;;;;6.18;71.07;103720.00;4999051;28;20121;-74
2023/02/14 09:27:25;;;;;;;207.18;189.98;;;;;;;6.09;71.98;103720.97;4999964;28;20791;-73
2023/02/14 09:29:51;;;;;;;207.80;190.73;;;;;;;6.15;71.41;103720.31;4999930;28;20042;-71
2023/02/14 09:32:17;;;;;;;216.50;199.73;;;;;;;6.34;70.93;103721.78;5003272;28;20547;-70
2023/02/14 09:34:42;;;;;;;206.20;189.30;;;;;;;6.34;71.37;103719.13;4982214;28;20036;-71
2023/02/14 09:39:57;;;;;;;204.20;187.52;;;;;;;6.40;71.22;103715.78;5002286;28;20137;-72
2023/02/14 09:42:36;;;;;;;215.02;198.48;;;;;;;6.43;70.20;103709.28;5003011;28;20132;-70
2023/02/14 09:45:10;;;;;;;216.73;200.30;;;;;;;6.33;70.98;103711.31;4997216;28;20129;-71
2023/02/14 09:47:48;;;;;;;210.75;194.70;;;;;;;6.38;71.19;103703.66;4998853;28;20044;-70
2023/02/14 09:50:22;;;;;;;207.07;189.73;;;;;;;6.39;71.35;103702.66;4983385;28;20050;-71
2023/02/14 09:52:56;;;;;;;215.57;199.15;;;;;;;6.46;70.59;103709.78;5001026;28;20804;-72
2023/02/14 09:55:26;;;;;;;214.70;198.50;;;;;;;6.57;70.42;103705.97;5001094;28;20145;-71
2023/02/14 09:58:21;;;;;;;209.65;192.18;;;;;;;6.67;70.93;103697.75;4981265;28;20121;-71
2023/02/14 10:01:12;;;;;;;215.40;198.88;;;;;;;6.68;70.14;103694.09;4979572;28;20050;-72
2023/02/14 10:04:12;;;;;;;207.48;190.57;;;;;;;6.64;70.53;103704.28;4998549;28;20106;-69
2023/02/14 10:06:53;;;;;;;207.05;190.32;;;;;;;6.68;70.55;103697.59;4997491;28;20093;-71
2023/02/14 10:09:30;;;;;;;211.23;193.55;;;;;;;6.68;70.62;103694.91;5001492;28;20044;-71
2023/02/14 10:11:59;;;;;;;214.50;198.20;;;;;;;6.68;70.66;103697.59;4999522;28;20466;-71
2023/02/14 10:14:32;;;;;;;207.48;190.30;;;;;;;6.78;70.83;103700.91;4998413;28;20037;-71
2023/02/14 10:17:21;;;;;;;214.90;198.68;;;;;;;6.84;70.41;103694.88;4994897;28;20845;-71
2023/02/14 10:19:52;;;;;;;206.32;189.40;;;;;;;6.87;70.79;103699.03;4984722;28;20221;-72
2023/02/14 10:22:22;;;;;;;207.05;190.15;;;;;;;6.91;70.03;103695.03;5000181;28;20034;-72
2023/02/14 10:24:53;;;;;;;203.13;186.68;;;;;;;7.05;69.67;103693.47;5000588;28;20087;-71
2023/02/14 10:27:33;;;;;;;214.73;198.60;;;;;;;6.96;69.93;103689.97;4999597;28;20030;-69
2023/02/14 10:30:01;;;;;;;210.38;193.20;;;;;;;7.01;70.19;103694.81;4994994;28;20113;-71
2023/02/14 10:32:41;;;;;;;214.82;198.38;;;;;;;6.91;70.41;103686.16;4999323;28;20121;-71
2023/02/14 10:35:22;;;;;;;208.63;191.48;;;;;;;7.00;70.92;103685.97;5008855;28;20029;-70
2023/02/14 10:38:09;;;;;;;215.88;199.45;;;;;;;7.19;70.19;103687.38;5024464;28;20061;-70
2023/02/14 10:40:47;;;;;;;214.40;198.02;;;;;;;7.42;69.83;103679.41;4998520;28;20712;-71
2023/02/14 10:43:17;;;;;;;219.63;202.85;;;;;;;7.45;68.68;103680.88;5000692;28;20121;-70
2023/02/14 10:46:06;;;;;;;214.27;197.88;;;;;;;7.45;69.08;103681.75;4999675;28;20403;-71
2023/02/14 10:48:59;;;;;;;203.27;186.60;;;;;;;7.29;69.22;103679.97;4995676;28;20041;-72
2023/02/14 10:51:49;;;;;;;203.80;187.20;;;;;;;7.60;69.72;103668.47;4969947;28;20030;-69
2023/02/14 10:54:25;;;;;;;214.48;196.48;;;;;;;7.49;69.51;103679.53;5001314;28;20061;-73
2023/02/14 10:56:58;;;;;;;229.15;211.23;;;;;;;7.60;69.27;103669.28;4999238;28;20034;-71
2023/02/14 11:00:01;;;;;;;224.00;206.65;;;;;;;7.64;69.38;103680.41;4999724;28;20080;-71
2023/02/14 11:02:32;;;;;;;214.38;198.07;;;;;;;7.72;69.13;103683.00;5001672;28;20033;-71
2023/02/14 11:05:01;;;;;;;228.73;210.88;;;;;;;7.59;68.27;103677.47;5001465;28;20058;-72
2023/02/14 11:07:28;;;;;;;217.15;199.00;;;;;;;7.68;68.88;103676.41;5000069;28;20042;-70
2023/02/14 11:09:55;;;;;;;218.82;200.32;;;;;;;7.87;68.77;103675.09;5015646;28;20117;-71
2023/02/14 11:12:37;;;;;;;229.05;211.27;;;;;;;7.78;68.92;103670.81;4998585;28;20395;-71
2023/02/14 11:18:09;;;;;;;225.60;208.05;;;;;;;7.92;68.91;103668.19;5057466;28;20398;-70
2023/02/14 11:20:35;;;;;;;225.35;207.57;;;;;;;8.04;67.93;103663.22;5030267;28;20033;-69
2023/02/14 11:23:00;;;;;;;225.13;207.82;;;;;;;8.08;67.73;103666.38;5042008;28;20090;-71
2023/02/14 11:25:28;;;;;;;215.75;197.68;;;;;;;8.20;67.60;103664.94;5046923;28;20532;-72
2023/02/14 11:28:03;;;;;;;232.00;213.93;;;;;;;8.22;67.90;103649.56;5018068;28;20117;-71
2023/02/14 11:30:40;;;;;;;219.40;200.82;;;;;;;8.22;67.08;103652.22;5036093;28;20037;-70
2023/02/14 11:33:11;;;;;;;231.38;213.38;;;;;;;8.21;67.64;103645.22;5028835;28;20879;-71
2023/02/14 11:35:37;;;;;;;223.57;206.13;;;;;;;8.31;67.73;103645.78;5036286;28;20025;-70
2023/02/14 11:38:06;;;;;;;216.98;198.75;;;;;;;7.94;68.16;103639.50;5023101;28;20040;-71